createdAt,value
2018-08-12T00:00:34.505Z,12.87
2018-08-12T00:01:34.483Z,12.87
2018-08-12T00:02:34.418Z,12.86
2018-08-12T00:03:34.377Z,12.86
2018-08-12T00:04:34.336Z,12.87
2018-08-12T00:05:43.284Z,12.86
2018-08-12T00:06:34.267Z,12.82
2018-08-12T00:07:34.226Z,12.83
2018-08-12T00:08:34.207Z,12.87
2018-08-12T00:09:34.148Z,12.85
2018-08-12T00:10:34.136Z,12.87
2018-08-12T00:11:34.060Z,12.92
2018-08-12T00:12:34.022Z,12.85
2018-08-12T00:13:33.992Z,12.89
2018-08-12T00:14:33.940Z,12.87
2018-08-12T00:15:33.933Z,12.83
2018-08-12T00:16:33.872Z,12.85
2018-08-12T00:17:33.829Z,12.87
2018-08-12T00:18:33.786Z,12.87
2018-08-12T00:19:33.743Z,12.83
2018-08-12T00:20:33.728Z,12.85
2018-08-12T00:21:33.676Z,12.85
2018-08-12T00:22:33.627Z,12.83
2018-08-12T00:23:33.586Z,12.79
2018-08-12T00:24:33.542Z,12.77
2018-08-12T00:25:33.504Z,12.72
2018-08-12T00:26:33.483Z,12.77
2018-08-12T00:27:33.434Z,12.75
2018-08-12T00:28:33.391Z,12.70
2018-08-12T00:29:33.355Z,12.64
2018-08-12T00:30:33.338Z,12.64
2018-08-12T00:31:33.278Z,12.67
2018-08-12T00:32:33.236Z,12.65
2018-08-12T00:33:33.185Z,12.56
2018-08-12T00:34:33.157Z,12.54
2018-08-12T00:35:33.140Z,12.46
2018-08-12T00:36:33.078Z,12.46
2018-08-12T00:37:33.028Z,12.42
2018-08-12T00:38:32.985Z,12.42
2018-08-12T00:39:32.956Z,12.41
2018-08-12T00:40:32.934Z,12.42
2018-08-12T00:41:32.884Z,12.42
2018-08-12T00:42:32.837Z,12.52
2018-08-12T00:43:32.791Z,12.38
2018-08-12T00:44:32.749Z,12.41
2018-08-12T00:45:43.342Z,12.46
2018-08-12T00:46:32.680Z,12.53
2018-08-12T00:47:32.635Z,12.47
2018-08-12T00:48:32.594Z,12.47
2018-08-12T00:49:32.551Z,12.52
2018-08-12T00:50:32.532Z,12.54
2018-08-12T00:51:32.476Z,12.56
2018-08-12T00:52:32.443Z,12.53
2018-08-12T00:53:32.387Z,12.64
2018-08-12T00:54:32.349Z,12.53
2018-08-12T00:55:32.329Z,12.62
2018-08-12T00:56:32.274Z,12.49
2018-08-12T00:57:32.237Z,12.39
2018-08-12T00:58:32.204Z,12.53
2018-08-12T00:59:32.157Z,12.52
2018-08-12T01:00:32.150Z,12.53
2018-08-12T01:01:32.068Z,12.52
2018-08-12T01:02:32.029Z,12.54
2018-08-12T01:03:31.988Z,12.50
2018-08-12T01:04:41.883Z,12.54
2018-08-12T01:05:31.913Z,12.56
2018-08-12T01:06:31.870Z,12.65
2018-08-12T01:07:31.835Z,12.56
2018-08-12T01:08:31.803Z,12.60
2018-08-12T01:09:31.801Z,12.67
2018-08-12T01:10:31.720Z,12.75
2018-08-12T01:11:31.674Z,12.78
2018-08-12T01:12:31.633Z,12.87
2018-08-12T01:13:31.595Z,13.00
2018-08-12T01:14:31.574Z,13.05
2018-08-12T01:15:31.517Z,13.17
2018-08-12T01:16:31.483Z,13.12
2018-08-12T01:17:31.439Z,13.17
2018-08-12T01:18:31.401Z,13.19
2018-08-12T01:19:31.379Z,13.17
2018-08-12T01:20:31.326Z,13.22
2018-08-12T01:21:31.282Z,13.23
2018-08-12T01:22:31.240Z,13.19
2018-08-12T01:23:31.210Z,13.25
2018-08-12T01:24:31.181Z,13.17
2018-08-12T01:25:31.117Z,13.17
2018-08-12T01:26:31.077Z,13.19
2018-08-12T01:27:31.040Z,13.17
2018-08-12T01:28:31.002Z,13.17
2018-08-12T01:29:30.989Z,13.30
2018-08-12T01:30:30.925Z,13.45
2018-08-12T01:31:30.881Z,13.48
2018-08-12T01:32:30.863Z,13.60
2018-08-12T01:33:30.799Z,13.55
2018-08-12T01:34:30.783Z,13.57
2018-08-12T01:35:30.727Z,13.70
2018-08-12T01:36:30.694Z,13.69
2018-08-12T01:37:30.638Z,13.67
2018-08-12T01:38:30.620Z,13.69
2018-08-12T01:39:30.594Z,13.71
2018-08-12T01:40:30.534Z,13.87
2018-08-12T01:41:30.503Z,13.89
2018-08-12T01:42:30.447Z,13.95
2018-08-12T01:43:30.402Z,13.97
2018-08-12T01:44:30.388Z,14.02
2018-08-12T01:45:30.325Z,13.99
2018-08-12T01:46:30.307Z,13.92
2018-08-12T01:47:30.252Z,13.96
2018-08-12T01:48:30.212Z,14.02
2018-08-12T01:49:30.175Z,13.96
2018-08-12T01:50:30.161Z,14.06
2018-08-12T01:51:30.103Z,13.96
2018-08-12T01:52:30.050Z,14.04
2018-08-12T01:53:30.026Z,14.10
2018-08-12T01:54:29.978Z,14.03
2018-08-12T01:55:29.950Z,14.03
2018-08-12T01:56:29.892Z,14.04
2018-08-12T01:57:29.865Z,14.14
2018-08-12T01:58:29.809Z,14.17
2018-08-12T01:59:29.776Z,14.17
2018-08-12T02:00:29.768Z,14.25
2018-08-12T02:01:29.701Z,14.24
2018-08-12T02:02:29.658Z,14.22
2018-08-12T02:03:29.614Z,14.28
2018-08-12T02:04:38.905Z,14.22
2018-08-12T02:05:29.547Z,14.14
2018-08-12T02:06:29.529Z,14.21
2018-08-12T02:07:29.459Z,14.17
2018-08-12T02:08:29.412Z,14.14
2018-08-12T02:09:29.393Z,14.17
2018-08-12T02:10:29.347Z,14.15
2018-08-12T02:11:29.323Z,14.14
2018-08-12T02:12:29.268Z,14.20
2018-08-12T02:13:29.217Z,14.20
2018-08-12T02:14:29.180Z,14.20
2018-08-12T02:15:29.147Z,14.18
2018-08-12T02:16:29.125Z,14.15
2018-08-12T02:17:29.069Z,14.17
2018-08-12T02:18:29.032Z,14.20
2018-08-12T02:19:28.996Z,14.32
2018-08-12T02:20:28.954Z,14.20
2018-08-12T02:21:28.931Z,14.22
2018-08-12T02:22:28.869Z,14.15
2018-08-12T02:23:28.834Z,14.18
2018-08-12T02:24:38.945Z,14.18
2018-08-12T02:25:28.748Z,14.22
2018-08-12T02:26:28.739Z,14.24
2018-08-12T02:27:28.679Z,14.24
2018-08-12T02:28:28.643Z,14.24
2018-08-12T02:29:28.597Z,14.24
2018-08-12T02:30:28.557Z,14.24
2018-08-12T02:31:28.523Z,14.35
2018-08-12T02:32:28.500Z,14.32
2018-08-12T02:33:28.432Z,14.28
2018-08-12T02:34:28.393Z,14.40
2018-08-12T02:35:28.364Z,14.33
2018-08-12T02:36:28.353Z,14.36
2018-08-12T02:37:28.273Z,14.35
2018-08-12T02:38:28.239Z,14.40
2018-08-12T02:39:28.205Z,14.40
2018-08-12T02:40:28.164Z,14.43
2018-08-12T02:41:28.144Z,14.47
2018-08-12T02:42:28.111Z,14.39
2018-08-12T02:43:28.043Z,14.42
2018-08-12T02:44:38.486Z,14.43
2018-08-12T02:45:27.968Z,14.40
2018-08-12T02:46:27.929Z,14.37
2018-08-12T02:47:27.917Z,14.42
2018-08-12T02:48:27.856Z,14.40
2018-08-12T02:49:27.805Z,14.32
2018-08-12T02:50:27.767Z,14.27
2018-08-12T02:51:27.731Z,14.32
2018-08-12T02:52:27.734Z,14.28
2018-08-12T02:53:27.646Z,14.22
2018-08-12T02:54:27.606Z,14.39
2018-08-12T02:55:27.571Z,14.37
2018-08-12T02:56:27.531Z,14.39
2018-08-12T02:57:27.533Z,14.36
2018-08-12T02:58:27.460Z,14.29
2018-08-12T02:59:27.417Z,14.36
2018-08-12T03:00:27.379Z,14.42
2018-08-12T03:01:27.334Z,14.39
2018-08-12T03:02:27.291Z,14.27
2018-08-12T03:03:27.278Z,14.35
2018-08-12T03:04:27.212Z,14.33
2018-08-12T03:05:27.183Z,14.28
2018-08-12T03:06:27.140Z,14.28
2018-08-12T03:07:27.098Z,14.21
2018-08-12T03:08:27.088Z,14.18
2018-08-12T03:09:27.029Z,14.14
2018-08-12T03:10:26.981Z,14.25
2018-08-12T03:11:26.947Z,14.27
2018-08-12T03:12:26.910Z,14.37
2018-08-12T03:13:26.888Z,14.21
2018-08-12T03:14:26.818Z,14.25
2018-08-12T03:15:26.781Z,14.27
2018-08-12T03:16:26.739Z,14.25
2018-08-12T03:17:26.705Z,14.20
2018-08-12T03:18:26.678Z,14.24
2018-08-12T03:19:26.674Z,14.25
2018-08-12T03:20:26.593Z,14.14
2018-08-12T03:21:26.550Z,14.25
2018-08-12T03:22:35.063Z,14.17
2018-08-12T03:23:34.556Z,14.18
2018-08-12T03:24:26.449Z,14.10
2018-08-12T03:25:26.395Z,14.14
2018-08-12T03:26:26.355Z,14.12
2018-08-12T03:27:26.316Z,14.06
2018-08-12T03:28:26.278Z,14.07
2018-08-12T03:29:26.254Z,14.06
2018-08-12T03:30:26.254Z,14.12
2018-08-12T03:31:26.149Z,14.12
2018-08-12T03:32:26.112Z,13.96
2018-08-12T03:33:26.080Z,13.97
2018-08-12T03:34:26.067Z,13.96
2018-08-12T03:35:26.009Z,13.92
2018-08-12T03:36:25.952Z,13.95
2018-08-12T03:37:25.919Z,13.96
2018-08-12T03:38:25.880Z,13.91
2018-08-12T03:39:25.840Z,13.97
2018-08-12T03:40:25.826Z,13.92
2018-08-12T03:41:25.759Z,13.85
2018-08-12T03:42:36.092Z,13.89
2018-08-12T03:43:25.684Z,13.92
2018-08-12T03:44:25.644Z,13.82
2018-08-12T03:45:25.625Z,13.84
2018-08-12T03:46:25.562Z,13.79
2018-08-12T03:47:25.524Z,13.82
2018-08-12T03:48:25.485Z,13.82
2018-08-12T03:49:25.445Z,13.78
2018-08-12T03:50:25.432Z,13.79
2018-08-12T03:51:25.367Z,13.85
2018-08-12T03:52:25.324Z,13.82
2018-08-12T03:53:25.282Z,13.81
2018-08-12T03:54:25.247Z,13.85
2018-08-12T03:55:25.209Z,13.88
2018-08-12T03:56:25.191Z,13.84
2018-08-12T03:57:25.132Z,13.88
2018-08-12T03:58:25.091Z,13.84
2018-08-12T03:59:25.044Z,13.81
2018-08-12T04:00:25.008Z,13.73
2018-08-12T04:01:24.984Z,13.78
2018-08-12T04:02:35.139Z,13.81
2018-08-12T04:03:24.893Z,13.81
2018-08-12T04:04:24.853Z,13.73
2018-08-12T04:05:24.815Z,13.70
2018-08-12T04:06:24.801Z,13.69
2018-08-12T04:07:24.747Z,13.64
2018-08-12T04:08:24.698Z,13.70
2018-08-12T04:09:24.650Z,13.77
2018-08-12T04:10:24.616Z,13.70
2018-08-12T04:11:24.577Z,13.77
2018-08-12T04:12:24.553Z,13.64
2018-08-12T04:13:24.504Z,13.67
2018-08-12T04:14:24.462Z,13.70
2018-08-12T04:15:24.420Z,13.67
2018-08-12T04:16:24.377Z,13.66
2018-08-12T04:17:24.362Z,13.67
2018-08-12T04:18:24.295Z,13.73
2018-08-12T04:19:24.261Z,13.69
2018-08-12T04:20:24.223Z,13.70
2018-08-12T04:21:24.181Z,13.59
2018-08-12T04:22:24.165Z,13.57
2018-08-12T04:23:24.107Z,13.67
2018-08-12T04:24:24.059Z,13.59
2018-08-12T04:25:24.024Z,13.54
2018-08-12T04:26:23.984Z,13.62
2018-08-12T04:27:23.971Z,13.66
2018-08-12T04:28:23.905Z,13.70
2018-08-12T04:29:23.858Z,13.69
2018-08-12T04:30:23.826Z,13.70
2018-08-12T04:31:23.791Z,13.73
2018-08-12T04:32:23.738Z,13.71
2018-08-12T04:33:23.726Z,13.81
2018-08-12T04:34:23.670Z,13.81
2018-08-12T04:35:23.620Z,13.81
2018-08-12T04:36:23.581Z,13.81
2018-08-12T04:37:23.550Z,13.88
2018-08-12T04:38:23.536Z,13.97
2018-08-12T04:39:23.468Z,13.99
2018-08-12T04:40:23.435Z,14.04
2018-08-12T04:41:33.752Z,14.00
2018-08-12T04:42:23.342Z,14.02
2018-08-12T04:43:23.357Z,14.10
2018-08-12T04:44:23.278Z,14.18
2018-08-12T04:45:23.233Z,14.15
2018-08-12T04:46:23.201Z,14.21
2018-08-12T04:47:23.147Z,14.22
2018-08-12T04:48:23.107Z,14.36
2018-08-12T04:49:23.124Z,14.40
2018-08-12T04:50:23.039Z,14.43
2018-08-12T04:51:22.993Z,14.45
2018-08-12T04:52:22.955Z,14.55
2018-08-12T04:53:22.911Z,14.58
2018-08-12T04:54:22.893Z,14.58
2018-08-12T04:55:22.838Z,14.65
2018-08-12T04:56:22.803Z,14.73
2018-08-12T04:57:22.760Z,14.88
2018-08-12T04:58:22.729Z,14.83
2018-08-12T04:59:22.699Z,14.96
2018-08-12T05:00:22.642Z,14.91
2018-08-12T05:01:33.743Z,14.94
2018-08-12T05:02:22.574Z,15.06
2018-08-12T05:03:22.533Z,15.10
2018-08-12T05:04:22.512Z,15.17
2018-08-12T05:05:22.452Z,15.34
2018-08-12T05:06:22.421Z,15.28
2018-08-12T05:07:22.370Z,15.39
2018-08-12T05:08:22.348Z,15.47
2018-08-12T05:09:22.292Z,15.62
2018-08-12T05:10:22.271Z,15.62
2018-08-12T05:11:22.212Z,15.72
2018-08-12T05:12:22.190Z,16.12
2018-08-12T05:13:22.146Z,16.83
2018-08-12T05:14:22.107Z,17.64
2018-08-12T05:15:22.089Z,18.29
2018-08-12T05:16:22.025Z,18.98
2018-08-12T05:17:21.977Z,19.51
2018-08-12T05:18:21.937Z,20.01
2018-08-12T05:19:21.918Z,20.31
2018-08-12T05:20:21.901Z,20.69
2018-08-12T05:21:32.281Z,20.87
2018-08-12T05:22:21.785Z,20.88
2018-08-12T05:23:21.754Z,20.98
2018-08-12T05:24:21.732Z,20.98
2018-08-12T05:25:21.681Z,20.77
2018-08-12T05:26:21.665Z,20.42
2018-08-12T05:27:21.597Z,20.16
2018-08-12T05:28:21.564Z,20.17
2018-08-12T05:29:21.519Z,20.39
2018-08-12T05:30:21.498Z,20.72
2018-08-12T05:31:21.476Z,20.57
2018-08-12T05:32:21.423Z,20.79
2018-08-12T05:33:21.376Z,21.03
2018-08-12T05:34:21.342Z,21.14
2018-08-12T05:35:21.349Z,21.16
2018-08-12T05:36:21.304Z,21.16
2018-08-12T05:37:21.236Z,21.31
2018-08-12T05:38:21.200Z,21.43
2018-08-12T05:39:21.158Z,21.19
2018-08-12T05:40:21.125Z,21.12
2018-08-12T05:41:30.827Z,20.67
2018-08-12T05:42:21.060Z,20.51
2018-08-12T05:43:21.019Z,20.67
2018-08-12T05:44:20.983Z,20.74
2018-08-12T05:45:20.951Z,20.88
2018-08-12T05:46:20.912Z,21.16
2018-08-12T05:47:20.903Z,21.01
2018-08-12T05:48:20.842Z,21.38
2018-08-12T05:49:20.798Z,21.65
2018-08-12T05:50:20.765Z,21.79
2018-08-12T05:51:20.771Z,22.20
2018-08-12T05:52:20.713Z,22.73
2018-08-12T05:53:20.662Z,23.04
2018-08-12T05:54:20.629Z,23.40
2018-08-12T05:55:20.594Z,24.10
2018-08-12T05:56:20.565Z,24.91
2018-08-12T05:57:20.579Z,24.64
2018-08-12T05:58:20.479Z,24.62
2018-08-12T05:59:20.457Z,24.61
2018-08-12T06:00:30.840Z,24.28
2018-08-12T06:01:20.376Z,23.65
2018-08-12T06:02:20.350Z,23.57
2018-08-12T06:03:20.346Z,22.61
2018-08-12T06:04:20.290Z,22.10
2018-08-12T06:05:20.249Z,21.47
2018-08-12T06:06:20.211Z,21.50
2018-08-12T06:07:20.180Z,20.99
2018-08-12T06:08:20.218Z,20.58
2018-08-12T06:09:20.100Z,20.47
2018-08-12T06:10:20.069Z,21.44
2018-08-12T06:11:20.048Z,22.00
2018-08-12T06:12:20.004Z,21.53
2018-08-12T06:13:19.999Z,20.73
2018-08-12T06:14:19.936Z,20.16
2018-08-12T06:15:19.896Z,19.39
2018-08-12T06:16:19.862Z,19.22
2018-08-12T06:17:19.874Z,19.08
2018-08-12T06:18:19.799Z,19.13
2018-08-12T06:19:19.777Z,19.04
2018-08-12T06:20:29.886Z,18.57
2018-08-12T06:21:19.692Z,18.37
2018-08-12T06:22:19.677Z,18.29
2018-08-12T06:23:19.625Z,18.30
2018-08-12T06:24:19.612Z,18.02
2018-08-12T06:25:19.553Z,17.95
2018-08-12T06:26:19.515Z,17.89
2018-08-12T06:27:19.491Z,17.92
2018-08-12T06:28:19.453Z,17.79
2018-08-12T06:29:19.441Z,17.77
2018-08-12T06:30:19.381Z,17.72
2018-08-12T06:31:19.337Z,17.74
2018-08-12T06:32:19.303Z,17.89
2018-08-12T06:33:19.286Z,17.84
2018-08-12T06:34:19.310Z,17.92
2018-08-12T06:35:19.202Z,17.95
2018-08-12T06:36:19.165Z,18.11
2018-08-12T06:37:19.143Z,18.15
2018-08-12T06:38:19.088Z,18.14
2018-08-12T06:39:19.051Z,18.15
2018-08-12T06:40:19.037Z,18.23
2018-08-12T06:41:18.985Z,18.33
2018-08-12T06:42:18.945Z,18.36
2018-08-12T06:43:18.918Z,18.58
2018-08-12T06:44:18.886Z,19.32
2018-08-12T06:45:18.862Z,19.92
2018-08-12T06:46:18.850Z,22.07
2018-08-12T06:47:18.773Z,24.24
2018-08-12T06:48:18.743Z,25.83
2018-08-12T06:49:18.687Z,25.97
2018-08-12T06:50:18.687Z,26.45
2018-08-12T06:51:18.645Z,26.57
2018-08-12T06:52:18.584Z,26.92
2018-08-12T06:53:18.557Z,27.13
2018-08-12T06:54:18.519Z,26.84
2018-08-12T06:55:18.485Z,26.55
2018-08-12T06:56:18.474Z,26.75
2018-08-12T06:57:18.424Z,27.75
2018-08-12T06:58:18.384Z,28.11
2018-08-12T06:59:18.342Z,26.88
2018-08-12T07:00:18.319Z,27.24
2018-08-12T07:01:18.313Z,27.17
2018-08-12T07:02:18.257Z,27.93
2018-08-12T07:03:18.210Z,28.66
2018-08-12T07:04:18.186Z,29.00
2018-08-12T07:05:18.149Z,29.37
2018-08-12T07:06:18.147Z,27.59
2018-08-12T07:07:18.093Z,27.03
2018-08-12T07:08:18.094Z,27.24
2018-08-12T07:09:18.018Z,27.88
2018-08-12T07:10:18.061Z,27.37
2018-08-12T07:11:17.973Z,26.37
2018-08-12T07:12:17.933Z,26.12
2018-08-12T07:13:17.890Z,26.23
2018-08-12T07:14:17.872Z,27.09
2018-08-12T07:15:17.823Z,27.07
2018-08-12T07:16:17.796Z,27.62
2018-08-12T07:17:17.819Z,28.02
2018-08-12T07:18:17.721Z,28.25
2018-08-12T07:19:27.936Z,27.66
2018-08-12T07:20:17.657Z,26.99
2018-08-12T07:21:17.627Z,26.39
2018-08-12T07:22:17.625Z,26.75
2018-08-12T07:23:17.573Z,26.52
2018-08-12T07:24:17.538Z,26.18
2018-08-12T07:25:17.504Z,26.23
2018-08-12T07:26:17.470Z,26.23
2018-08-12T07:27:17.429Z,26.66
2018-08-12T07:28:17.432Z,27.03
2018-08-12T07:29:17.367Z,27.36
2018-08-12T07:30:17.339Z,27.65
2018-08-12T07:31:17.319Z,27.85
2018-08-12T07:32:17.280Z,28.59
2018-08-12T07:33:17.260Z,29.15
2018-08-12T07:34:17.204Z,29.63
2018-08-12T07:35:17.180Z,29.87
2018-08-12T07:36:17.146Z,29.78
2018-08-12T07:37:17.137Z,29.76
2018-08-12T07:38:17.109Z,28.78
2018-08-12T07:39:27.475Z,27.66
2018-08-12T07:40:17.017Z,26.52
2018-08-12T07:41:16.995Z,26.28
2018-08-12T07:42:16.959Z,25.83
2018-08-12T07:43:16.950Z,25.95
2018-08-12T07:44:16.898Z,25.58
2018-08-12T07:45:16.862Z,25.36
2018-08-12T07:46:16.828Z,25.65
2018-08-12T07:47:16.806Z,26.18
2018-08-12T07:48:16.791Z,26.32
2018-08-12T07:49:16.745Z,26.97
2018-08-12T07:50:16.706Z,26.65
2018-08-12T07:51:16.672Z,26.10
2018-08-12T07:52:16.640Z,25.69
2018-08-12T07:53:16.644Z,25.47
2018-08-12T07:54:16.593Z,25.77
2018-08-12T07:55:19.491Z,25.47
2018-08-12T07:56:16.528Z,25.95
2018-08-12T07:57:16.485Z,25.46
2018-08-12T07:58:26.030Z,25.72
2018-08-12T07:59:16.430Z,25.76
2018-08-12T08:00:16.400Z,26.25
2018-08-12T08:01:16.361Z,26.28
2018-08-12T08:02:16.330Z,26.39
2018-08-12T08:03:16.304Z,26.43
2018-08-12T08:04:16.296Z,26.29
2018-08-12T08:05:16.244Z,26.30
2018-08-12T08:06:16.239Z,26.60
2018-08-12T08:07:16.175Z,26.35
2018-08-12T08:08:16.144Z,26.20
2018-08-12T08:09:16.158Z,25.88
2018-08-12T08:10:16.091Z,25.88
2018-08-12T08:11:16.064Z,25.97
2018-08-12T08:12:16.020Z,26.32
2018-08-12T08:13:15.991Z,26.09
2018-08-12T08:14:15.987Z,26.21
2018-08-12T08:15:15.935Z,25.73
2018-08-12T08:16:15.906Z,25.51
2018-08-12T08:17:15.872Z,25.17
2018-08-12T08:18:26.062Z,25.00
2018-08-12T08:19:15.842Z,25.13
2018-08-12T08:20:15.786Z,25.20
2018-08-12T08:21:15.743Z,25.32
2018-08-12T08:22:15.714Z,25.36
2018-08-12T08:23:15.684Z,25.50
2018-08-12T08:24:15.683Z,25.45
2018-08-12T08:25:15.713Z,24.80
2018-08-12T08:26:15.593Z,24.49
2018-08-12T08:27:15.564Z,24.78
2018-08-12T08:28:15.533Z,24.87
2018-08-12T08:29:15.496Z,25.10
2018-08-12T08:30:15.483Z,25.25
2018-08-12T08:31:15.468Z,25.88
2018-08-12T08:32:15.508Z,26.43
2018-08-12T08:33:15.370Z,26.25
2018-08-12T08:34:15.335Z,26.10
2018-08-12T08:35:15.333Z,25.95
2018-08-12T08:36:15.275Z,25.94
2018-08-12T08:37:15.249Z,25.98
2018-08-12T08:38:15.221Z,25.92
2018-08-12T08:39:15.190Z,26.28
2018-08-12T08:40:15.188Z,25.97
2018-08-12T08:41:15.120Z,26.25
2018-08-12T08:42:15.092Z,26.35
2018-08-12T08:43:15.060Z,25.92
2018-08-12T08:44:15.032Z,25.99
2018-08-12T08:45:15.045Z,26.40
2018-08-12T08:46:14.979Z,26.82
2018-08-12T08:47:14.937Z,27.14
2018-08-12T08:48:14.915Z,27.46
2018-08-12T08:49:14.885Z,27.78
2018-08-12T08:50:14.856Z,27.50
2018-08-12T08:51:14.848Z,27.90
2018-08-12T08:52:14.795Z,28.25
2018-08-12T08:53:14.762Z,28.12
2018-08-12T08:54:14.733Z,28.22
2018-08-12T08:55:14.703Z,28.39
2018-08-12T08:56:14.692Z,28.40
2018-08-12T08:57:14.647Z,28.11
2018-08-12T08:58:25.114Z,27.82
2018-08-12T08:59:14.589Z,27.41
2018-08-12T09:00:14.553Z,27.62
2018-08-12T09:01:14.604Z,27.60
2018-08-12T09:02:14.502Z,27.37
2018-08-12T09:03:14.473Z,27.49
2018-08-12T09:04:14.439Z,27.25
2018-08-12T09:05:14.408Z,27.36
2018-08-12T09:06:14.384Z,27.31
2018-08-12T09:07:14.381Z,27.13
2018-08-12T09:08:14.442Z,27.50
2018-08-12T09:09:14.657Z,27.47
2018-08-12T09:10:14.420Z,27.43
2018-08-12T09:11:14.238Z,27.81
2018-08-12T09:12:14.232Z,28.02
2018-08-12T09:13:14.180Z,28.12
2018-08-12T09:14:14.156Z,28.18
2018-08-12T09:15:14.130Z,28.21
2018-08-12T09:16:14.103Z,28.18
2018-08-12T09:17:23.680Z,28.30
2018-08-12T09:18:14.165Z,28.40
2018-08-12T09:19:14.024Z,28.61
2018-08-12T09:20:13.991Z,28.24
2018-08-12T09:21:13.957Z,27.74
2018-08-12T09:22:13.952Z,27.59
2018-08-12T09:23:13.896Z,28.03
2018-08-12T09:24:13.958Z,28.37
2018-08-12T09:25:13.848Z,28.18
2018-08-12T09:26:13.824Z,28.31
2018-08-12T09:27:13.794Z,28.61
2018-08-12T09:28:13.837Z,28.93
2018-08-12T09:29:13.728Z,28.78
2018-08-12T09:30:13.707Z,28.76
2018-08-12T09:31:13.684Z,28.56
2018-08-12T09:32:13.651Z,28.67
2018-08-12T09:33:13.644Z,28.29
2018-08-12T09:34:13.589Z,28.22
2018-08-12T09:35:13.564Z,28.17
2018-08-12T09:36:13.542Z,28.31
2018-08-12T09:37:23.698Z,28.31
2018-08-12T09:38:13.523Z,28.03
2018-08-12T09:39:13.457Z,28.14
2018-08-12T09:40:13.428Z,28.24
2018-08-12T09:41:13.397Z,28.25
2018-08-12T09:42:13.373Z,28.00
2018-08-12T09:43:13.448Z,27.90
2018-08-12T09:44:13.347Z,27.55
2018-08-12T09:45:13.289Z,27.40
2018-08-12T09:46:13.265Z,27.25
2018-08-12T09:47:13.243Z,27.51
2018-08-12T09:48:13.213Z,26.91
2018-08-12T09:49:13.207Z,26.94
2018-08-12T09:50:13.157Z,27.02
2018-08-12T09:51:13.125Z,26.84
2018-08-12T09:52:13.097Z,27.04
2018-08-12T09:53:13.066Z,27.44
2018-08-12T09:54:13.062Z,27.63
2018-08-12T09:55:13.018Z,27.25
2018-08-12T09:56:12.990Z,26.99
2018-08-12T09:57:23.247Z,27.18
2018-08-12T09:58:12.933Z,27.43
2018-08-12T09:59:12.937Z,27.78
2018-08-12T10:00:12.889Z,27.97
2018-08-12T10:01:12.843Z,28.06
2018-08-12T10:02:12.815Z,28.14
2018-08-12T10:03:12.788Z,28.11
2018-08-12T10:04:12.761Z,27.96
2018-08-12T10:05:12.762Z,28.24
2018-08-12T10:06:12.716Z,28.41
2018-08-12T10:07:12.687Z,28.78
2018-08-12T10:08:12.656Z,28.98
2018-08-12T10:09:12.622Z,28.24
2018-08-12T10:10:12.622Z,28.19
2018-08-12T10:11:12.569Z,28.03
2018-08-12T10:12:12.541Z,28.24
2018-08-12T10:13:12.527Z,28.29
2018-08-12T10:14:12.495Z,28.41
2018-08-12T10:15:12.459Z,28.59
2018-08-12T10:16:12.457Z,27.85
2018-08-12T10:17:12.414Z,27.75
2018-08-12T10:18:12.383Z,27.92
2018-08-12T10:19:12.356Z,28.21
2018-08-12T10:20:12.329Z,28.31
2018-08-12T10:21:12.316Z,28.54
2018-08-12T10:22:12.271Z,28.67
2018-08-12T10:23:12.245Z,28.76
2018-08-12T10:24:12.213Z,28.66
2018-08-12T10:25:12.193Z,28.76
2018-08-12T10:26:12.194Z,28.78
2018-08-12T10:27:12.141Z,28.88
2018-08-12T10:28:12.119Z,28.68
2018-08-12T10:29:12.128Z,28.36
2018-08-12T10:30:12.055Z,28.07
2018-08-12T10:31:12.065Z,27.70
2018-08-12T10:32:12.008Z,27.81
2018-08-12T10:33:11.975Z,28.02
2018-08-12T10:34:11.947Z,28.12
2018-08-12T10:35:11.922Z,28.19
2018-08-12T10:36:11.895Z,27.93
2018-08-12T10:37:11.895Z,27.78
2018-08-12T10:38:11.846Z,27.51
2018-08-12T10:39:11.821Z,27.41
2018-08-12T10:40:11.794Z,27.25
2018-08-12T10:41:11.759Z,27.37
2018-08-12T10:42:11.757Z,27.27
2018-08-12T10:43:11.707Z,27.60
2018-08-12T10:44:11.686Z,27.62
2018-08-12T10:45:11.656Z,27.50
2018-08-12T10:46:11.636Z,27.46
2018-08-12T10:47:11.623Z,27.62
2018-08-12T10:48:11.567Z,27.93
2018-08-12T10:49:11.553Z,28.02
2018-08-12T10:50:11.523Z,28.02
2018-08-12T10:51:11.497Z,28.18
2018-08-12T10:52:11.472Z,28.39
2018-08-12T10:53:11.452Z,28.67
2018-08-12T10:54:11.405Z,27.97
2018-08-12T10:55:11.384Z,27.55
2018-08-12T10:56:20.825Z,27.44
2018-08-12T10:57:11.335Z,27.70
2018-08-12T10:58:11.331Z,27.27
2018-08-12T10:59:11.306Z,27.27
2018-08-12T11:00:11.244Z,27.50
2018-08-12T11:01:11.227Z,27.34
2018-08-12T11:02:11.198Z,27.31
2018-08-12T11:03:11.210Z,27.54
2018-08-12T11:04:11.138Z,27.81
2018-08-12T11:05:11.108Z,27.78
2018-08-12T11:06:11.109Z,28.04
2018-08-12T11:07:11.118Z,28.34
2018-08-12T11:08:11.040Z,28.29
2018-08-12T11:09:11.031Z,28.51
2018-08-12T11:10:10.985Z,28.74
2018-08-12T11:11:10.948Z,28.74
2018-08-12T11:12:10.922Z,28.81
2018-08-12T11:13:10.896Z,28.92
2018-08-12T11:14:10.889Z,29.28
2018-08-12T11:15:10.849Z,29.21
2018-08-12T11:16:21.352Z,29.28
2018-08-12T11:17:10.793Z,29.51
2018-08-12T11:18:10.795Z,29.49
2018-08-12T11:19:10.773Z,29.30
2018-08-12T11:20:10.719Z,29.37
2018-08-12T11:21:10.686Z,29.65
2018-08-12T11:22:10.659Z,29.52
2018-08-12T11:23:10.632Z,29.52
2018-08-12T11:24:10.610Z,28.92
2018-08-12T11:25:10.617Z,28.55
2018-08-12T11:26:10.569Z,27.92
2018-08-12T11:27:10.540Z,28.02
2018-08-12T11:28:10.516Z,27.85
2018-08-12T11:29:10.482Z,28.00
2018-08-12T11:30:10.477Z,28.02
2018-08-12T11:31:10.438Z,27.63
2018-08-12T11:32:10.418Z,27.59
2018-08-12T11:33:10.382Z,27.51
2018-08-12T11:34:10.358Z,27.60
2018-08-12T11:35:10.360Z,27.44
2018-08-12T11:36:10.307Z,27.66
2018-08-12T11:37:10.285Z,27.67
2018-08-12T11:38:10.261Z,27.77
2018-08-12T11:39:10.238Z,27.92
2018-08-12T11:40:10.241Z,28.03
2018-08-12T11:41:10.242Z,28.15
2018-08-12T11:42:10.145Z,27.94
2018-08-12T11:43:10.122Z,27.82
2018-08-12T11:44:10.096Z,28.09
2018-08-12T11:45:10.071Z,28.34
2018-08-12T11:46:10.070Z,28.61
2018-08-12T11:47:10.015Z,28.78
2018-08-12T11:48:09.989Z,29.00
2018-08-12T11:49:09.971Z,29.08
2018-08-12T11:50:09.998Z,29.09
2018-08-12T11:51:09.939Z,29.06
2018-08-12T11:52:09.889Z,29.06
2018-08-12T11:53:09.858Z,29.09
2018-08-12T11:54:09.832Z,29.00
2018-08-12T11:55:09.809Z,29.11
2018-08-12T11:56:09.808Z,28.96
2018-08-12T11:57:09.761Z,28.92
2018-08-12T11:58:09.738Z,28.95
2018-08-12T11:59:09.712Z,28.89
2018-08-12T12:00:09.687Z,29.02
2018-08-12T12:01:09.653Z,29.05
2018-08-12T12:02:09.674Z,29.23
2018-08-12T12:03:09.609Z,29.00
2018-08-12T12:04:09.586Z,28.92
2018-08-12T12:05:09.547Z,28.85
2018-08-12T12:06:09.526Z,28.88
2018-08-12T12:07:09.524Z,28.80
2018-08-12T12:08:09.475Z,28.88
2018-08-12T12:09:09.456Z,29.02
2018-08-12T12:10:09.428Z,28.89
2018-08-12T12:11:09.405Z,28.90
2018-08-12T12:12:09.406Z,28.51
2018-08-12T12:13:09.346Z,28.59
2018-08-12T12:14:09.319Z,28.83
2018-08-12T12:15:09.350Z,28.86
2018-08-12T12:16:09.270Z,28.77
2018-08-12T12:17:09.252Z,28.61
2018-08-12T12:18:09.246Z,28.71
2018-08-12T12:19:09.193Z,28.80
2018-08-12T12:20:09.170Z,28.89
2018-08-12T12:21:09.151Z,28.74
2018-08-12T12:22:09.125Z,28.40
2018-08-12T12:23:09.122Z,28.22
2018-08-12T12:24:09.073Z,27.87
2018-08-12T12:25:09.041Z,27.90
2018-08-12T12:26:09.042Z,27.84
2018-08-12T12:27:08.988Z,27.70
2018-08-12T12:28:08.990Z,27.75
2018-08-12T12:29:08.947Z,27.72
2018-08-12T12:30:08.918Z,27.59
2018-08-12T12:31:08.889Z,27.62
2018-08-12T12:32:08.865Z,27.65
2018-08-12T12:33:08.829Z,27.75
2018-08-12T12:34:08.849Z,27.96
2018-08-12T12:35:08.827Z,28.25
2018-08-12T12:36:08.758Z,28.27
2018-08-12T12:37:08.726Z,28.31
2018-08-12T12:38:08.700Z,28.34
2018-08-12T12:39:08.690Z,28.41
2018-08-12T12:40:08.646Z,28.44
2018-08-12T12:41:08.634Z,28.27
2018-08-12T12:42:08.615Z,28.24
2018-08-12T12:43:19.923Z,28.22
2018-08-12T12:44:08.565Z,28.17
2018-08-12T12:45:08.517Z,28.18
2018-08-12T12:46:08.489Z,28.30
2018-08-12T12:47:08.467Z,28.33
2018-08-12T12:48:08.443Z,28.49
2018-08-12T12:49:08.412Z,28.51
2018-08-12T12:50:08.412Z,28.30
2018-08-12T12:51:08.367Z,27.97
2018-08-12T12:52:08.341Z,28.04